Current Weather

Shoreham

Shoreham, United Kingdom (EGKA)

Report from: Friday, February 23, 2024 5:50 PM GMT
Current time: Friday, February 23, 2024 7:37 PM GMT

Nearby weather – Weather history – Daily summaries
Weather forecast

Temperature7.0°C (44.6°F)
Wind chill4.3°C (39.7°F)
Dew point3.0°C (37.4°F)
Winds 8 kts (4.1 m/s, 9.2 mph) West-Southwest (240°)
Visibility6.2 mi. (10 km)
Clouds Few clouds 2,900 ft. (884 m)
Altimeter29.18 in.Hg (988 mB)
Relative humidity76 %
Density altitude17 ft. (5 m)
Flight conditions Visual Meteorological Conditions
Raw dataEGKA 231750Z 24008KT 9999 FEW029 07/03 Q0988
An error has occurred. This application may no longer respond until reloaded. Reload 🗙